Lantana, FL (33462)

9:15 AM EDT on October 01, 2014 (GMT -0400)
TWO GEMS Wind & Weather | Change Station
CLOSE
Current Station
Personal Weather Station
Location: Lake Worth, FL
Elevation: 14 ft
Nearby Weather Stations

Elev 14 ft 26.59 °N, 80.11 °W | Updated 19 seconds ago

Clear
Clear
80.2 °F
Feels Like 88 °F
N
0.0
Wind Variable Wind from SSW
Gusts 0.0 mph

Today
High -- | Low -- °F
--% Chance of Precip.
Yesterday
High -- | Low -- °F
Precip. -- in
7:12 AM 7:06 PM
Waxing Crescent, 47% visible
Pressure 29.93 in
Visibility 10.0 miles
Clouds Few 2500 ft
Few 15000 ft
Scattered Clouds 20000 ft
Heat Index 88 °F
Dew Point 80 °F
Humidity 99%
Rainfall 0.01 in
Snow Depth Not available.
UV 2 out of 12
Pollen 4.60 out of 12
Ozone Good
PM2.5 Good
Flu Activity Not available.
METAR KPBI 011253Z 24005KT 10SM FEW025 FEW150 SCT200 27/26 A2993 RMK SLP134 CB TCU DSNT NE-SE S-SW T02720256

More Conditions Fewer Conditions

Pressure 29.93 in
Visibility 10.0 miles
Clouds Few 2500 ft
Few 15000 ft
Scattered Clouds 20000 ft
Heat Index 88 °F
Dew Point 80 °F
Humidity 99%
Rainfall 0.01 in
Snow Depth Not available.
UV 2 out of 12
Pollen 4.60 out of 12
Ozone Good
PM2.5 Good
Flu Activity Not available.
METAR KPBI 011253Z 24005KT 10SM FEW025 FEW150 SCT200 27/26 A2993 RMK SLP134 CB TCU DSNT NE-SE S-SW T02720256

More Conditions Fewer Conditions

Nowcast | as of 8:09 am EDT on October 1, 2014

Southwesterly flow continues to affect South Florida today. Showers and a few rumbles of thunder are moving from southwest to northeast and will be reaching Naples between 0815 and 0820 am EDT. Showers and thunderstorms are forecast to develop along the East Coast Metro areas this afternoon and evening.

×

10-Day Weather Forecast

Almanac

Astronomy

Oct. 01, 2014 Rise Set
Actual Time 7:12 AM EDT 7:06 PM EDT
Civil Twilight 6:49 AM EDT 7:29 PM EDT
Nautical Twilight 6:22 AM EDT 7:56 PM EDT
Astronomical Twilight 5:55 AM EDT 8:23 PM EDT
Moon 1:49 PM EDT 12:00 AM EDT
Length of Visible Light 12h 40m
Length of Day
11h 53m
Tomorrow will be 1m 34s shorter.
Waxing Crescent, 47% of the Moon is Illuminated
Today
Waxing Crescent
Oct 1
First Quarter
Oct 8
Full
Oct 15
Last Quarter
Oct 23
New

Today's Extremes

State Highs State Lows

Community

WunderPhotos

Upload Photos

1,757,925 photos uploaded!

Nearby

Air Quality

  Air Quality AQ Index Pollutant
Yesterday Good
PM2.5
Yesterday Good
OZONE
Current Good
PM2.5
Current Good
OZONE
Wednesday Good
OZONE
Wednesday Good
PM2.5
Thursday Good
OZONE
Thursday Good
PM2.5

Snow Depth

Station Depth Elevation
No new snow has been reported.

Earthquake Activity

City Distance Mag. Time & Date
No recent earthquake activity has been reported nearby.
Minimum magnitude displayed is 2.5.

Coastal Water Temperatures

Place Temperature
Lake Worth, FL 84.9 °F
Virginia Key, FL 84.9 °F

Nearby Weather Stations